Time;durP1;ratioP1;P1;durP2;ratioP2;P2;SDS_P1;SDS_P2;PMS_P1;PMS_P2;Temp;Humidity;BMP_temperature;BMP_pressure;BME280_temperature;BME280_humidity;BME280_pressure;Samples;Min_cycle;Max_cycle;Signal;HPM_P1;HPM_P2
2022/04/29 00:00:47;;;;;;;126.15;90.10;;;;;;;12.34;100.00;101667.53;4908401;29;20053;-90
2022/04/29 00:03:21;;;;;;;109.35;79.22;;;;;;;12.28;100.00;101670.13;4911733;29;20056;-91
2022/04/29 00:05:48;;;;;;;94.95;68.72;;;;;;;12.26;100.00;101669.50;4913892;29;20072;-94
2022/04/29 00:08:23;;;;;;;91.10;71.97;;;;;;;12.24;100.00;101677.69;4901633;29;20044;-94
2022/04/29 00:10:51;;;;;;;79.13;64.35;;;;;;;12.35;100.00;101677.16;4923295;29;20048;-92
2022/04/29 00:13:20;;;;;;;156.80;99.07;;;;;;;11.94;100.00;101682.34;4912419;29;20049;-91
2022/04/29 00:15:53;;;;;;;306.80;153.05;;;;;;;11.97;100.00;101679.31;4916203;29;20060;-92
2022/04/29 00:18:22;;;;;;;111.07;70.53;;;;;;;12.15;100.00;101684.16;4921340;29;20059;-92
2022/04/29 00:20:52;;;;;;;68.93;56.95;;;;;;;12.02;100.00;101689.41;4919082;29;20502;-93
2022/04/29 00:23:19;;;;;;;71.57;54.10;;;;;;;12.07;100.00;101678.97;4919584;29;20068;-92
2022/04/29 00:25:50;;;;;;;63.90;51.88;;;;;;;12.07;100.00;101685.16;4917882;29;20052;-91
2022/04/29 00:28:18;;;;;;;47.00;42.10;;;;;;;12.28;100.00;101691.44;4911472;29;20041;-93
2022/04/29 00:30:48;;;;;;;51.92;46.33;;;;;;;12.25;100.00;101689.16;4918747;29;20052;-91
2022/04/29 00:33:19;;;;;;;55.03;49.20;;;;;;;12.27;100.00;101679.13;4912598;29;20053;-91
2022/04/29 00:35:49;;;;;;;46.42;42.08;;;;;;;12.20;100.00;101675.63;4918710;29;20135;-93
2022/04/29 00:38:17;;;;;;;45.00;40.88;;;;;;;12.36;100.00;101675.31;4919773;29;20104;-90
2022/04/29 00:40:48;;;;;;;50.53;45.90;;;;;;;12.41;100.00;101675.56;4906389;29;20113;-91
2022/04/29 00:43:15;;;;;;;65.85;59.25;;;;;;;12.24;100.00;101667.03;4920516;29;20060;-92
2022/04/29 00:45:42;;;;;;;47.90;43.45;;;;;;;12.35;100.00;101666.50;4914170;29;20052;-89
2022/04/29 00:48:09;;;;;;;53.97;48.88;;;;;;;12.35;100.00;101665.69;4912045;29;20048;-92
2022/04/29 00:50:42;;;;;;;48.83;44.38;;;;;;;12.40;100.00;101663.25;4916272;29;20048;-92
2022/04/29 00:53:15;;;;;;;43.85;39.38;;;;;;;12.42;100.00;101657.72;4915612;29;20048;-91
2022/04/29 00:55:45;;;;;;;44.65;40.50;;;;;;;12.31;100.00;101648.44;4910787;29;20079;-92
2022/04/29 00:58:19;;;;;;;42.00;37.90;;;;;;;12.31;100.00;101643.91;4913477;29;20059;-92
2022/04/29 01:00:48;;;;;;;44.70;40.30;;;;;;;12.23;100.00;101645.94;4924589;29;20049;-91
2022/04/29 01:03:18;;;;;;;43.72;39.45;;;;;;;12.29;100.00;101650.47;4929511;29;20089;-93
2022/04/29 01:05:50;;;;;;;46.25;41.53;;;;;;;12.14;100.00;101645.25;4920334;29;20091;-91
2022/04/29 01:08:17;;;;;;;46.85;41.67;;;;;;;12.02;100.00;101654.78;4919715;29;20064;-92
2022/04/29 01:10:46;;;;;;;44.15;39.70;;;;;;;12.06;100.00;101654.19;4907765;29;20074;-91
2022/04/29 01:13:26;;;;;;;40.92;37.03;;;;;;;12.04;100.00;101658.91;4913914;29;20527;-92
2022/04/29 01:15:57;;;;;;;93.85;72.50;;;;;;;11.91;100.00;101650.78;4907994;29;20067;-91
2022/04/29 01:18:31;;;;;;;158.93;98.07;;;;;;;12.21;100.00;101647.94;4920098;29;20075;-91
2022/04/29 01:21:13;;;;;;;91.50;66.22;;;;;;;12.34;100.00;101659.53;4912072;29;20054;-91
2022/04/29 01:23:43;;;;;;;66.38;51.58;;;;;;;12.22;100.00;101649.59;4915077;29;20045;-91
2022/04/29 01:26:15;;;;;;;60.38;48.90;;;;;;;12.28;100.00;101654.97;4914697;29;20041;-90
2022/04/29 01:28:46;;;;;;;47.53;41.33;;;;;;;12.32;100.00;101648.25;4911422;29;20049;-92
2022/04/29 01:31:15;;;;;;;48.08;42.15;;;;;;;12.43;100.00;101651.38;4910957;29;20056;-91
2022/04/29 01:33:51;;;;;;;47.80;42.90;;;;;;;12.29;100.00;101661.13;4912777;29;20475;-92
2022/04/29 01:36:18;;;;;;;46.15;41.70;;;;;;;12.31;100.00;101653.75;4924942;29;20092;-92
2022/04/29 01:38:49;;;;;;;44.58;40.20;;;;;;;12.52;100.00;101650.19;4920292;29;20077;-92
2022/04/29 01:41:23;;;;;;;39.65;36.05;;;;;;;12.33;100.00;101652.53;4914740;29;20049;-91
2022/04/29 01:43:50;;;;;;;43.40;39.22;;;;;;;12.40;100.00;101647.25;4913418;29;20060;-93
2022/04/29 01:46:18;;;;;;;41.55;37.72;;;;;;;12.47;100.00;101642.00;4914682;29;20052;-91
2022/04/29 01:48:46;;;;;;;40.50;36.47;;;;;;;12.41;100.00;101638.25;4919390;29;20492;-91
2022/04/29 01:51:15;;;;;;;42.08;38.08;;;;;;;12.25;100.00;101641.22;4916576;29;20053;-92
2022/04/29 01:53:53;;;;;;;41.42;37.50;;;;;;;12.09;100.00;101629.84;4907596;29;20073;-92
2022/04/29 01:56:32;;;;;;;39.25;35.35;;;;;;;12.11;100.00;101635.81;4910647;29;20076;-91
2022/04/29 01:59:00;;;;;;;38.33;34.65;;;;;;;11.97;100.00;101630.56;4916856;29;20061;-92
2022/04/29 02:01:27;;;;;;;43.97;39.67;;;;;;;11.94;100.00;101634.44;5030248;23;20055;-93
2022/04/29 02:03:54;;;;;;;42.75;38.65;;;;;;;11.83;100.00;101634.91;4951983;29;20325;-92
2022/04/29 02:06:21;;;;;;;42.78;38.65;;;;;;;11.85;100.00;101628.41;4950213;29;20040;-93
2022/04/29 02:08:50;;;;;;;42.33;38.08;;;;;;;11.81;100.00;101623.66;4950305;29;20070;-93
2022/04/29 02:11:17;;;;;;;41.40;37.45;;;;;;;11.82;100.00;101631.44;4955643;29;20058;-93
2022/04/29 02:13:45;;;;;;;44.45;40.15;;;;;;;11.74;100.00;101625.41;4954721;29;20044;-93
2022/04/29 02:16:12;;;;;;;48.90;42.60;;;;;;;11.48;100.00;101618.84;4958022;29;20043;-92
2022/04/29 02:18:39;;;;;;;61.15;50.72;;;;;;;11.67;100.00;101626.19;4953972;29;20523;-94
2022/04/29 02:21:06;;;;;;;56.38;50.95;;;;;;;11.77;100.00;101627.69;4954651;29;20052;-93
2022/04/29 02:23:33;;;;;;;53.08;48.00;;;;;;;11.61;100.00;101621.63;4952066;29;20051;-93
2022/04/29 02:26:01;;;;;;;50.15;45.05;;;;;;;11.58;100.00;101621.19;4947098;29;20053;-93
2022/04/29 02:28:29;;;;;;;48.83;43.47;;;;;;;11.45;100.00;101628.03;4949856;29;20047;-93
2022/04/29 02:30:56;;;;;;;52.60;46.75;;;;;;;11.37;100.00;101628.13;4956336;29;20043;-91
2022/04/29 02:33:23;;;;;;;47.85;40.00;;;;;;;11.34;100.00;101631.19;4955226;29;20052;-92
2022/04/29 02:35:50;;;;;;;49.15;42.72;;;;;;;11.24;100.00;101633.31;4953560;29;20048;-92
2022/04/29 02:38:17;;;;;;;51.65;42.90;;;;;;;11.13;100.00;101623.16;4956345;29;20036;-93
2022/04/29 02:40:44;;;;;;;51.50;43.20;;;;;;;11.34;100.00;101628.50;4957349;29;20056;-93
2022/04/29 02:43:13;;;;;;;51.05;41.58;;;;;;;11.17;100.00;101635.09;4955738;29;20044;-92
2022/04/29 02:45:40;;;;;;;59.35;43.25;;;;;;;11.14;100.00;101635.47;4949489;29;20112;-92
2022/04/29 02:48:07;;;;;;;57.55;45.92;;;;;;;11.26;100.00;101646.44;4949009;29;20052;-94
2022/04/29 02:50:34;;;;;;;68.65;61.45;;;;;;;11.31;100.00;101652.81;4952870;29;20114;-93
2022/04/29 02:53:01;;;;;;;68.05;61.70;;;;;;;11.23;100.00;101637.81;4948053;29;20051;-93
2022/04/29 02:55:28;;;;;;;72.07;64.50;;;;;;;11.17;100.00;101651.06;4948192;29;20115;-92
2022/04/29 02:57:55;;;;;;;71.90;63.45;;;;;;;11.08;100.00;101649.50;4954658;29;20679;-93
2022/04/29 03:00:23;;;;;;;61.47;54.38;;;;;;;11.12;100.00;101650.78;4945631;29;20052;-92
2022/04/29 03:02:50;;;;;;;63.47;57.10;;;;;;;10.97;100.00;101656.94;4971245;29;20065;-94
2022/04/29 03:05:17;;;;;;;59.45;52.90;;;;;;;10.94;100.00;101662.63;4972197;29;20047;-93
2022/04/29 03:07:44;;;;;;;66.40;58.15;;;;;;;10.75;100.00;101660.53;4971585;28;20061;-94
2022/04/29 03:10:11;;;;;;;63.45;56.63;;;;;;;10.70;100.00;101670.88;4966989;29;20099;-93
2022/04/29 03:12:37;;;;;;;63.50;56.60;;;;;;;10.83;100.00;101673.72;4968347;29;20051;-93
2022/04/29 03:15:17;;;;;;;60.58;54.40;;;;;;;10.82;100.00;101679.22;4966271;29;20054;-93
2022/04/29 03:20:35;;;;;;;68.30;48.05;;;;;;;11.03;100.00;101678.47;4967116;29;20066;-93
2022/04/29 03:23:02;;;;;;;55.70;44.10;;;;;;;11.07;100.00;101683.22;4969028;29;20095;-94
2022/04/29 03:25:29;;;;;;;58.25;46.67;;;;;;;11.03;100.00;101673.16;4968004;29;20051;-92
2022/04/29 03:27:56;;;;;;;56.65;46.05;;;;;;;10.74;100.00;101696.94;4970036;29;20051;-93
2022/04/29 03:30:23;;;;;;;67.75;49.45;;;;;;;10.65;100.00;101691.84;4967736;28;21553;-94
2022/04/29 03:32:57;;;;;;;72.53;50.85;;;;;;;10.95;100.00;101695.34;4971598;29;20079;-93
2022/04/29 03:35:24;;;;;;;56.63;43.85;;;;;;;11.13;100.00;101684.31;4968632;28;20044;-94
2022/04/29 03:37:53;;;;;;;64.95;50.60;;;;;;;11.06;100.00;101684.25;4974429;28;20056;-92
2022/04/29 03:40:21;;;;;;;60.58;48.35;;;;;;;11.31;100.00;101687.41;4977621;28;21996;-92
2022/04/29 03:42:49;;;;;;;77.25;63.72;;;;;;;11.41;100.00;101689.78;4965352;29;20054;-93
2022/04/29 03:45:16;;;;;;;81.22;64.78;;;;;;;11.30;100.00;101688.44;4976877;28;20059;-92
2022/04/29 03:47:43;;;;;;;72.97;61.30;;;;;;;11.38;100.00;101688.31;4970891;29;20055;-93
2022/04/29 03:50:13;;;;;;;72.05;60.00;;;;;;;11.35;100.00;101698.53;4968549;28;20062;-94
2022/04/29 03:52:47;;;;;;;80.50;64.70;;;;;;;11.31;100.00;101703.34;4964668;28;20058;-93
2022/04/29 03:55:14;;;;;;;76.47;57.70;;;;;;;11.38;100.00;101698.97;4974437;29;20051;-93
2022/04/29 03:57:43;;;;;;;69.32;57.22;;;;;;;11.38;100.00;101692.81;4961449;28;20107;-92
2022/04/29 04:00:13;;;;;;;65.20;55.53;;;;;;;11.28;100.00;101694.94;4970492;28;20130;-93
2022/04/29 04:02:40;;;;;;;61.47;52.28;;;;;;;11.31;100.00;101694.56;4962186;29;20060;-94
2022/04/29 04:05:08;;;;;;;67.47;58.53;;;;;;;11.26;100.00;101694.31;4961691;29;20031;-94
2022/04/29 04:07:37;;;;;;;63.10;53.47;;;;;;;11.59;100.00;101705.31;4962284;28;20059;-93
2022/04/29 04:10:05;;;;;;;61.40;54.90;;;;;;;11.67;100.00;101703.34;4968846;29;20235;-93
2022/04/29 04:20:39;;;;;;;59.70;53.92;;;;;;;11.56;100.00;101718.97;4962364;23;20062;-91
2022/04/29 04:23:08;;;;;;;53.70;48.05;;;;;;;11.70;100.00;101710.97;4937745;29;20048;-91
2022/04/29 04:25:35;;;;;;;59.40;47.70;;;;;;;11.71;100.00;101703.81;4935938;29;20066;-93
2022/04/29 04:28:02;;;;;;;94.25;65.05;;;;;;;11.72;100.00;101705.47;4928702;29;20059;-94
2022/04/29 04:30:29;;;;;;;88.22;60.22;;;;;;;11.59;100.00;101713.28;4933316;29;20052;-94
2022/04/29 04:32:56;;;;;;;93.10;59.83;;;;;;;11.64;100.00;101708.22;4930430;29;20044;-92
2022/04/29 04:35:22;;;;;;;84.85;58.13;;;;;;;11.97;100.00;101713.09;4931481;29;20044;-92
2022/04/29 04:37:49;;;;;;;78.72;58.42;;;;;;;12.27;100.00;101719.91;4931527;29;20044;-92
2022/04/29 04:40:18;;;;;;;69.82;56.97;;;;;;;12.47;100.00;101711.28;4931969;29;20048;-93
2022/04/29 04:42:45;;;;;;;76.88;56.90;;;;;;;12.36;100.00;101717.94;4936525;29;20091;-90
2022/04/29 04:45:12;;;;;;;69.30;48.13;;;;;;;12.52;100.00;101719.47;4941167;29;20064;-92
2022/04/29 04:47:39;;;;;;;65.15;46.05;;;;;;;12.67;100.00;101727.38;4940924;29;20114;-93
2022/04/29 04:50:07;;;;;;;63.88;45.80;;;;;;;12.50;100.00;101725.03;4939495;29;20097;-93
2022/04/29 04:52:34;;;;;;;51.83;41.55;;;;;;;12.81;100.00;101724.59;4940103;29;20079;-93
2022/04/29 04:55:05;;;;;;;46.40;41.40;;;;;;;13.05;100.00;101725.97;4941157;29;20084;-93
2022/04/29 04:57:35;;;;;;;49.03;43.00;;;;;;;12.86;100.00;101725.84;4936412;29;20070;-92
2022/04/29 05:00:04;;;;;;;44.97;40.63;;;;;;;13.05;100.00;101725.97;4941517;29;20056;-93
2022/04/29 05:02:30;;;;;;;45.03;40.40;;;;;;;13.42;100.00;101728.41;4940821;29;20051;-94
2022/04/29 05:04:57;;;;;;;43.60;39.40;;;;;;;13.21;100.00;101732.00;4940426;29;20048;-92
2022/04/29 05:07:25;;;;;;;43.38;39.22;;;;;;;13.18;100.00;101725.19;4940407;29;20071;-92
2022/04/29 05:09:51;;;;;;;43.72;39.80;;;;;;;13.39;100.00;101720.81;4940515;29;20050;-92
2022/04/29 05:12:18;;;;;;;47.22;42.75;;;;;;;13.39;100.00;101734.16;4939808;29;20043;-93
2022/04/29 05:14:48;;;;;;;46.20;42.20;;;;;;;13.18;100.00;101727.03;5211064;23;20105;-92
2022/04/29 05:17:15;;;;;;;47.55;43.38;;;;;;;13.61;100.00;101727.63;4934409;29;20070;-92
2022/04/29 05:19:43;;;;;;;49.85;45.60;;;;;;;13.21;100.00;101727.47;4936529;29;20052;-93
2022/04/29 05:22:10;;;;;;;42.42;38.88;;;;;;;13.56;100.00;101729.28;4936386;29;20067;-93
2022/04/29 05:24:37;;;;;;;45.58;41.67;;;;;;;13.25;100.00;101723.44;4930984;29;20044;-92
2022/04/29 05:27:04;;;;;;;48.58;44.42;;;;;;;13.31;100.00;101726.31;4937170;29;20059;-93
2022/04/29 05:29:31;;;;;;;43.33;39.55;;;;;;;13.73;100.00;101731.34;4939004;29;20103;-92
2022/04/29 05:32:02;;;;;;;42.72;39.15;;;;;;;13.97;100.00;101737.16;4936418;29;20044;-94
2022/04/29 05:34:33;;;;;;;47.97;43.97;;;;;;;13.31;100.00;101727.13;4938523;29;20052;-92
2022/04/29 05:37:00;;;;;;;40.75;37.20;;;;;;;13.48;100.00;101738.28;4938562;29;20060;-92
2022/04/29 05:42:15;;;;;;;41.30;37.70;;;;;;;13.87;100.00;101748.25;4937828;29;20132;-93
2022/04/29 05:44:43;;;;;;;43.10;39.30;;;;;;;13.97;100.00;101740.66;4936843;29;20043;-93
2022/04/29 05:47:11;;;;;;;46.17;42.58;;;;;;;14.09;100.00;101743.53;4939282;29;20032;-91
2022/04/29 05:49:38;;;;;;;42.80;38.97;;;;;;;14.54;100.00;101745.63;4939731;29;20047;-92
2022/04/29 05:52:07;;;;;;;41.85;38.45;;;;;;;14.10;100.00;101739.88;4939218;29;20116;-92
2022/04/29 05:54:34;;;;;;;42.72;39.17;;;;;;;14.95;100.00;101737.34;4939739;29;20052;-92
2022/04/29 05:57:02;;;;;;;42.20;38.40;;;;;;;15.04;100.00;101736.09;4939275;29;20060;-94
2022/04/29 05:59:29;;;;;;;43.78;39.58;;;;;;;14.55;100.00;101741.94;4937340;29;20062;-93
2022/04/29 06:01:57;;;;;;;43.45;40.05;;;;;;;14.60;100.00;101744.81;4939580;29;20096;-93
2022/04/29 06:04:25;;;;;;;46.45;42.65;;;;;;;14.07;100.00;101760.78;4937067;29;20040;-92
2022/04/29 06:06:52;;;;;;;44.17;40.58;;;;;;;14.27;100.00;101750.13;4938918;29;20068;-93
2022/04/29 06:09:19;;;;;;;41.38;38.05;;;;;;;14.14;100.00;101756.31;4937147;29;20063;-93
2022/04/29 06:11:46;;;;;;;45.08;41.33;;;;;;;14.09;100.00;101762.25;4938291;29;20040;-92
2022/04/29 06:14:13;;;;;;;45.50;41.50;;;;;;;14.29;100.00;101758.78;4939306;29;20072;-93
2022/04/29 06:16:40;;;;;;;42.53;39.03;;;;;;;14.94;100.00;101758.94;4939603;29;20066;-92
2022/04/29 06:19:07;;;;;;;44.20;40.47;;;;;;;13.91;100.00;101765.50;4940459;29;20466;-92
2022/04/29 06:21:36;;;;;;;49.38;45.28;;;;;;;14.34;100.00;101766.97;4942318;29;20056;-92
2022/04/29 06:24:03;;;;;;;46.75;42.83;;;;;;;14.17;100.00;101763.91;4943507;29;20036;-95
2022/04/29 06:26:30;;;;;;;44.25;40.55;;;;;;;14.14;100.00;101767.00;4943259;29;20059;-93
2022/04/29 06:28:57;;;;;;;42.75;39.05;;;;;;;14.18;100.00;101773.56;4943258;29;20052;-93
2022/04/29 06:31:23;;;;;;;44.13;39.97;;;;;;;14.69;100.00;101767.63;4943364;29;20043;-93
2022/04/29 06:33:50;;;;;;;43.42;39.22;;;;;;;13.92;100.00;101775.19;4943591;29;20104;-93
2022/04/29 06:36:17;;;;;;;42.03;38.15;;;;;;;14.21;100.00;101773.97;4943154;29;20099;-94
2022/04/29 06:38:46;;;;;;;43.88;39.80;;;;;;;15.01;100.00;101767.78;4943168;29;20059;-93
2022/04/29 06:41:15;;;;;;;41.42;37.72;;;;;;;15.02;100.00;101769.44;4943384;29;20099;-94
2022/04/29 06:43:42;;;;;;;44.10;40.20;;;;;;;14.87;100.00;101785.72;4941158;29;20035;-92
2022/04/29 06:46:09;;;;;;;43.42;39.35;;;;;;;15.48;100.00;101776.47;4942804;29;20079;-94
2022/04/29 06:48:35;;;;;;;44.03;39.95;;;;;;;15.02;100.00;101780.94;4943417;29;20055;-93
2022/04/29 06:51:05;;;;;;;41.13;37.33;;;;;;;14.80;100.00;101774.22;4936890;29;20044;-92
2022/04/29 06:53:32;;;;;;;42.60;38.67;;;;;;;14.55;100.00;101782.84;4942550;29;20036;-93
2022/04/29 06:56:00;;;;;;;43.17;39.28;;;;;;;14.72;100.00;101779.75;4942408;29;20036;-92
2022/04/29 06:58:27;;;;;;;44.80;40.67;;;;;;;15.02;100.00;101780.94;4943279;29;20043;-94
2022/04/29 07:00:54;;;;;;;46.05;41.85;;;;;;;15.24;100.00;101778.00;4942403;29;20052;-93
2022/04/29 07:03:21;;;;;;;43.10;39.17;;;;;;;15.16;100.00;101768.38;4942358;29;20107;-94
2022/04/29 07:05:51;;;;;;;43.58;39.70;;;;;;;15.10;100.00;101778.06;4942396;29;20099;-94
2022/04/29 07:08:20;;;;;;;43.78;39.75;;;;;;;14.63;100.00;101774.63;4942146;29;20107;-94
2022/04/29 07:10:47;;;;;;;42.63;38.58;;;;;;;14.76;100.00;101770.28;4935509;29;20051;-92
2022/04/29 07:13:15;;;;;;;44.10;39.83;;;;;;;14.60;100.00;101772.38;4942297;29;20048;-93
2022/04/29 07:15:44;;;;;;;46.38;42.17;;;;;;;15.34;100.00;101776.53;4940907;29;20051;-94
2022/04/29 07:18:11;;;;;;;43.00;39.10;;;;;;;14.64;100.00;101776.28;4942317;29;20035;-92
2022/04/29 07:20:38;;;;;;;44.75;40.65;;;;;;;15.07;100.00;101783.00;4942316;29;20032;-93
2022/04/29 07:23:05;;;;;;;44.58;40.55;;;;;;;15.30;100.00;101777.97;4942444;29;20038;-93
2022/04/29 07:25:32;;;;;;;45.35;41.35;;;;;;;15.49;100.00;101781.63;4940007;29;20032;-92
2022/04/29 07:28:00;;;;;;;44.15;40.25;;;;;;;14.88;100.00;101782.00;4942608;29;20111;-93
2022/04/29 07:30:28;;;;;;;47.08;42.80;;;;;;;14.54;100.00;101770.50;4941826;29;20032;-94
2022/04/29 07:32:55;;;;;;;48.83;44.08;;;;;;;15.32;100.00;101781.28;4941450;29;20048;-93
2022/04/29 07:43:36;;;;;;;46.85;42.63;;;;;;;14.69;100.00;101775.66;4941789;29;20066;-93
2022/04/29 07:46:05;;;;;;;44.75;40.42;;;;;;;15.32;100.00;101780.44;4941403;29;20056;-94
2022/04/29 07:48:32;;;;;;;45.85;41.42;;;;;;;15.91;100.00;101786.56;4941808;29;20046;-94
2022/04/29 07:50:59;;;;;;;46.63;42.40;;;;;;;16.15;100.00;101787.66;4941907;29;20032;-94
2022/04/29 07:53:26;;;;;;;46.92;42.53;;;;;;;15.60;100.00;101781.97;4942389;29;20056;-93
2022/04/29 07:55:53;;;;;;;47.60;43.17;;;;;;;16.06;100.00;101788.97;4941871;29;20091;-94
2022/04/29 07:58:20;;;;;;;45.75;41.58;;;;;;;14.87;100.00;101789.19;4941718;29;20048;-95
2022/04/29 08:00:48;;;;;;;45.67;41.63;;;;;;;15.22;100.00;101786.25;4941779;29;20119;-93
2022/04/29 08:03:16;;;;;;;44.63;40.53;;;;;;;16.40;100.00;101790.34;4942322;29;20052;-92
2022/04/29 08:05:43;;;;;;;44.13;40.33;;;;;;;15.90;100.00;101790.31;4942190;29;20043;-94
2022/04/29 08:08:10;;;;;;;44.22;40.55;;;;;;;16.10;100.00;101787.50;4941796;29;20048;-93
2022/04/29 08:10:37;;;;;;;45.92;41.97;;;;;;;16.55;100.00;101780.16;4941501;29;20052;-93
2022/04/29 08:13:06;;;;;;;44.25;40.53;;;;;;;15.91;100.00;101792.75;4941807;29;20032;-91
2022/04/29 08:15:33;;;;;;;44.25;40.55;;;;;;;16.77;100.00;101782.47;4941653;29;20075;-94
2022/04/29 08:18:01;;;;;;;44.35;40.65;;;;;;;16.35;100.00;101785.66;4941712;29;20048;-95
2022/04/29 08:20:29;;;;;;;39.45;36.47;;;;;;;17.36;100.00;101781.78;4941521;29;20046;-92
2022/04/29 08:22:56;;;;;;;42.95;39.35;;;;;;;17.88;100.00;101786.72;4937545;29;20031;-94
2022/04/29 08:25:23;;;;;;;39.83;36.53;;;;;;;16.92;100.00;101788.28;4941329;29;20099;-94
2022/04/29 08:27:51;;;;;;;38.35;35.45;;;;;;;16.62;100.00;101783.59;4940530;29;20055;-93
2022/04/29 08:30:18;;;;;;;41.60;38.25;;;;;;;16.33;100.00;101786.91;4941261;29;20121;-94
2022/04/29 08:32:46;;;;;;;35.17;32.58;;;;;;;15.26;100.00;101784.78;4940739;29;20044;-93
2022/04/29 08:35:15;;;;;;;41.50;38.17;;;;;;;15.87;100.00;101791.53;4929766;29;20067;-94
2022/04/29 08:37:44;;;;;;;41.88;38.28;;;;;;;15.75;100.00;101780.69;4933132;29;20056;-92
2022/04/29 08:40:13;;;;;;;40.78;37.47;;;;;;;16.68;100.00;101785.38;4941431;29;20033;-92
2022/04/29 08:42:41;;;;;;;40.78;37.47;;;;;;;17.21;100.00;101793.97;4935978;29;20052;-93
2022/04/29 08:45:10;;;;;;;41.50;38.30;;;;;;;17.70;100.00;101776.00;4940834;29;20142;-93
2022/04/29 08:47:40;;;;;;;43.15;39.80;;;;;;;17.20;100.00;101786.97;4937590;29;20065;-93
2022/04/29 08:50:08;;;;;;;40.13;37.28;;;;;;;18.19;100.00;101782.16;4941684;29;20052;-94
2022/04/29 08:52:36;;;;;;;41.60;38.40;;;;;;;18.32;100.00;101781.94;4941110;29;20055;-92
2022/04/29 09:00:38;;;;;;;37.50;34.78;;;;;;;17.33;100.00;101773.38;4939905;29;20059;-92
2022/04/29 09:03:06;;;;;;;40.30;37.28;;;;;;;18.03;100.00;101765.63;4941271;29;20040;-92
2022/04/29 09:05:33;;;;;;;46.53;43.22;;;;;;;18.65;100.00;101765.22;4938631;29;20066;-92
2022/04/29 09:08:01;;;;;;;47.00;43.75;;;;;;;18.41;100.00;101764.41;4938641;29;20104;-94
2022/04/29 09:10:34;;;;;;;42.95;39.72;;;;;;;18.56;100.00;101757.75;4939767;29;20036;-92
2022/04/29 09:13:12;;;;;;;43.40;40.40;;;;;;;17.44;100.00;101756.50;4941069;29;20050;-92
2022/04/29 09:15:46;;;;;;;46.00;42.80;;;;;;;18.44;100.00;101755.88;4939042;29;20068;-93
2022/04/29 09:18:13;;;;;;;43.88;40.78;;;;;;;18.40;100.00;101754.69;4939795;29;20043;-93
2022/04/29 09:20:41;;;;;;;32.65;30.35;;;;;;;17.00;100.00;101745.03;4940351;29;20044;-92
2022/04/29 09:23:08;;;;;;;30.23;28.33;;;;;;;16.44;100.00;101740.63;4934849;29;20032;-92
2022/04/29 09:25:37;;;;;;;32.35;30.35;;;;;;;18.40;100.00;101752.00;4941814;29;20078;-92
2022/04/29 09:28:06;;;;;;;32.90;30.88;;;;;;;18.21;100.00;101756.66;4940345;29;20024;-93
2022/04/29 09:30:35;;;;;;;32.55;30.45;;;;;;;18.92;100.00;101744.06;4939935;29;20040;-92
2022/04/29 09:33:02;;;;;;;32.65;30.55;;;;;;;17.34;100.00;101738.25;4938086;29;20038;-92
2022/04/29 09:35:42;;;;;;;37.25;34.85;;;;;;;19.21;100.00;101739.56;4940544;29;20040;-93
2022/04/29 09:41:00;;;;;;;36.85;34.17;;;;;;;18.66;100.00;101742.63;4941445;29;20110;-92
2022/04/29 09:43:36;;;;;;;34.97;32.67;;;;;;;18.95;100.00;101742.78;4939812;29;20068;-93
2022/04/29 09:46:10;;;;;;;37.15;34.08;;;;;;;19.64;100.00;101745.50;4937697;29;20257;-93
2022/04/29 09:48:54;;;;;;;34.70;32.58;;;;;;;18.97;100.00;101744.19;4941010;29;20059;-93
2022/04/29 09:51:44;;;;;;;34.83;32.45;;;;;;;18.15;100.00;101751.38;4939799;29;20116;-94
2022/04/29 09:54:16;;;;;;;34.85;32.55;;;;;;;18.31;100.00;101751.53;4928938;29;20040;-93
2022/04/29 09:56:45;;;;;;;33.60;31.40;;;;;;;18.29;100.00;101745.56;4939862;29;20063;-94
2022/04/29 09:59:13;;;;;;;33.53;31.23;;;;;;;17.45;100.00;101741.22;4944158;29;20056;-93
2022/04/29 10:01:42;;;;;;;33.42;31.20;;;;;;;18.22;100.00;101747.56;4943972;29;20290;-92
2022/04/29 10:04:10;;;;;;;32.20;30.00;;;;;;;17.89;100.00;101744.56;4944405;29;20036;-93
2022/04/29 10:06:40;;;;;;;34.47;32.08;;;;;;;18.41;100.00;101750.13;4944230;29;20076;-92
2022/04/29 10:09:10;;;;;;;33.22;30.95;;;;;;;18.15;100.00;101743.31;4944428;29;20095;-93
2022/04/29 10:11:40;;;;;;;34.38;32.28;;;;;;;19.01;100.00;101739.13;4942009;29;20076;-94
2022/04/29 10:14:10;;;;;;;32.28;30.17;;;;;;;18.11;100.00;101752.91;4944205;29;20036;-93
2022/04/29 10:16:39;;;;;;;31.90;29.80;;;;;;;17.90;100.00;101740.81;4935432;29;20072;-93
2022/04/29 10:21:58;;;;;;;32.88;30.88;;;;;;;17.56;100.00;101735.06;4943230;29;20076;-93
2022/04/29 10:24:25;;;;;;;32.30;30.00;;;;;;;17.29;100.00;101732.72;4942880;29;20072;-92
2022/04/29 10:26:55;;;;;;;35.17;32.53;;;;;;;19.13;100.00;101725.66;4944008;29;20059;-92
2022/04/29 10:29:24;;;;;;;35.70;33.28;;;;;;;19.56;100.00;101721.63;4943606;29;20028;-92
2022/04/29 10:32:08;;;;;;;33.53;31.30;;;;;;;19.37;100.00;101721.00;4942042;29;20060;-95
2022/04/29 10:34:35;;;;;;;33.92;31.52;;;;;;;19.25;100.00;101722.94;4942680;29;20060;-92
2022/04/29 10:37:02;;;;;;;34.50;32.05;;;;;;;18.51;100.00;101724.28;4937921;29;20040;-92
2022/04/29 10:39:29;;;;;;;32.72;30.35;;;;;;;19.19;100.00;101717.44;4942868;29;20054;-93
2022/04/29 10:42:01;;;;;;;31.45;29.33;;;;;;;19.45;100.00;101720.59;4939626;29;20087;-94
2022/04/29 10:44:30;;;;;;;33.78;31.38;;;;;;;19.02;100.00;101727.28;4940216;29;20056;-94
2022/04/29 10:47:02;;;;;;;33.05;30.85;;;;;;;19.14;100.00;101720.00;4941790;29;20036;-93
2022/04/29 10:49:30;;;;;;;;;;;;;;;19.18;100.00;101718.50;4934814;29;20037;-92
2022/04/29 10:52:00;;;;;;;34.38;32.00;;;;;;;19.19;100.00;101719.31;4942260;29;19931;-93
2022/04/29 10:54:43;;;;;;;33.95;31.40;;;;;;;19.57;100.00;101723.25;4939094;29;20032;-93
2022/04/29 10:57:12;;;;;;;32.83;30.73;;;;;;;18.28;100.00;101721.59;4939749;29;20055;-92
2022/04/29 10:59:57;;;;;;;31.85;29.80;;;;;;;18.24;100.00;101715.03;4936444;29;20090;-92
2022/04/29 11:02:26;;;;;;;31.13;29.13;;;;;;;17.78;100.00;101711.22;4937125;29;20089;-93
2022/04/29 11:04:53;;;;;;;32.33;30.50;;;;;;;17.36;100.00;101721.91;4936615;29;20059;-94
2022/04/29 11:07:38;;;;;;;31.50;29.58;;;;;;;17.67;100.00;101707.44;4935252;29;20116;-92
2022/04/29 11:10:07;;;;;;;34.17;31.80;;;;;;;17.41;100.00;101716.69;4935727;29;20111;-93
2022/04/29 11:12:36;;;;;;;32.05;30.05;;;;;;;18.84;100.00;101705.91;4938094;29;20063;-93
2022/04/29 11:15:13;;;;;;;33.58;31.38;;;;;;;18.67;100.00;101711.16;4933463;29;20143;-92
2022/04/29 11:17:41;;;;;;;31.08;29.17;;;;;;;18.71;100.00;101710.47;4933932;29;20044;-92
2022/04/29 11:20:32;;;;;;;31.30;29.25;;;;;;;19.29;100.00;101714.09;4936871;29;20044;-93
2022/04/29 11:25:54;;;;;;;30.48;28.48;;;;;;;18.96;100.00;101698.63;4928820;29;20072;-94
2022/04/29 11:28:22;;;;;;;30.45;28.17;;;;;;;19.96;100.00;101697.28;4933366;29;20048;-93
2022/04/29 11:30:58;;;;;;;31.10;28.90;;;;;;;19.66;100.00;101700.25;4935156;29;20058;-93
2022/04/29 11:33:26;;;;;;;32.53;30.40;;;;;;;20.26;100.00;101696.94;4936340;29;20056;-93
2022/04/29 11:35:57;;;;;;;33.33;31.13;;;;;;;20.55;100.00;101704.94;4935118;29;20044;-93
2022/04/29 11:38:24;;;;;;;32.03;30.05;;;;;;;19.13;100.00;101707.63;4930189;29;20052;-93
2022/04/29 11:40:52;;;;;;;31.67;29.65;;;;;;;18.76;100.00;101701.75;4933083;29;20052;-93
2022/04/29 11:43:23;;;;;;;33.42;31.33;;;;;;;18.58;100.00;101707.19;4931565;29;20052;-93
2022/04/29 11:46:05;;;;;;;31.73;29.85;;;;;;;18.77;100.00;101716.81;4932174;29;20048;-92